Latest Weather Observations for Mornington Island Airport

IDQ60801

Issued at 9:35 pm EST Thursday 21 August 2014 (issued every 30 minutes, with the page automatically refreshed every 10 minutes)

About weather observations | Map of weather stations | Latest weather observations for QLD | Other Formats
Station Details ID: 029182 Name: MORNINGTON ISLAND AIRPORT Lat: -16.66 Lon: 139.17 Height: 9.0 m
Data from the previous 72 hours. | See also: Recent months at Mornington Island Airport
Date/Time
EST
Temp
°C
App
Temp
°C
Dew
Point
Rel
Hum
%
Delta-T
°C
Wind Press
QNH
hPa
Press
MSL
hPa
Rain
since 9 am
mm
Dir
 
Spd
km/h
Gust
km/h
Spd
kts
Gust
kts
21/09:30pm 18.2 18.9 16.0 87 1.3 WSW 7 9 4 5 1016.3 1016.2 0.0
21/09:00pm 18.5 19.1 15.9 85 1.5 W 7 11 4 6 1016.2 1016.1 0.0
21/08:30pm 17.9 17.6 13.2 74 2.6 W 7 9 4 5 1016.0 1015.9 0.0
21/08:00pm 19.6 19.0 12.4 63 4.0 W 7 13 4 7 1015.9 1015.8 0.0
21/07:30pm 18.5 15.1 -0.8 27 8.3 N 7 9 4 5 1015.4 1015.3 0.0
21/07:00pm 20.4 17.4 -2.0 22 9.5 E 4 9 2 5 1014.9 1014.8 0.0
21/06:30pm 22.9 18.5 -2.6 18 11.0 E 11 13 6 7 1014.6 1014.5 0.0
21/06:00pm 24.9 19.6 -3.5 15 12.2 E 15 20 8 11 1014.2 1014.1 0.0
21/05:30pm 25.8 20.4 -4.7 13 12.9 ESE 15 19 8 10 1014.1 1014.0 0.0
21/05:00pm 26.0 21.0 -4.5 13 13.0 ESE 13 20 7 11 1013.9 1013.8 0.0
21/04:30pm 26.2 21.3 -3.4 14 12.9 ESE 13 19 7 10 1013.9 1013.8 0.0
21/04:00pm 26.1 21.1 -4.4 13 13.0 ESE 13 22 7 12 1013.9 1013.8 0.0
21/03:30pm 26.0 20.7 -3.5 14 12.8 ESE 15 22 8 12 1014.0 1013.9 0.0
21/03:00pm 26.2 20.5 -3.4 14 12.9 ESE 17 26 9 14 1014.2 1014.1 0.0
21/02:30pm 25.3 19.1 -5.1 13 12.7 ESE 19 30 10 16 1014.7 1014.6 0.0
21/02:00pm 24.3 19.8 4.1 27 10.0 SE 17 26 9 14 1015.2 1015.1 0.0
21/01:30pm 24.5 20.9 6.7 32 9.2 SSE 15 22 8 12 1015.7 1015.6 0.0
21/01:00pm 23.2 18.9 5.1 31 9.0 SSE 17 24 9 13 1016.1 1016.0 0.0
21/12:30pm 22.6 18.5 4.6 31 8.9 SSE 15 26 8 14 1016.5 1016.4 0.0
21/12:00pm 22.3 17.9 4.8 32 8.6 SE 17 30 9 16 1016.9 1016.8 0.0
21/11:30am 21.7 16.9 4.7 33 8.3 SSE 19 32 10 17 1017.5 1017.4 0.0
21/11:00am 21.4 16.5 4.0 32 8.4 SE 19 30 10 16 1017.9 1017.8 0.0
21/10:30am 21.8 16.8 4.4 32 8.5 SE 20 33 11 18 1018.3 1018.2 0.0
21/10:00am 21.0 15.8 3.7 32 8.3 SSE 20 35 11 19 1018.4 1018.3 0.0
21/09:30am 20.9 16.0 4.0 33 8.1 SE 19 33 10 18 1018.4 1018.3 0.0
21/09:00am 20.5 15.6 4.1 34 7.9 SE 19 32 10 17 1018.1 1018.0 0.0
21/08:30am 19.8 15.6 5.8 40 6.9 SSE 17 26 9 14 1017.8 1017.7 0.0
21/08:00am 18.9 14.5 4.7 39 6.8 SSE 17 30 9 16 1017.5 1017.4 0.0
21/07:30am 17.9 14.3 5.2 43 6.1 SSE 13 22 7 12 1017.1 1017.0 0.0
21/07:00am 17.3 13.9 5.9 47 5.5 SSE 13 24 7 13 1016.9 1016.8 0.0
21/06:30am 17.8 14.0 4.0 40 6.5 SSE 13 22 7 12 1016.6 1016.5 0.0
21/06:00am 17.9 14.0 5.2 43 6.1 SSE 15 24 8 13 1016.2 1016.1 0.0
21/05:30am 18.1 13.3 2.8 36 7.0 S 17 28 9 15 1015.6 1015.5 0.0
21/05:00am 18.0 13.7 3.1 37 6.9 S 15 22 8 12 1015.5 1015.4 0.0
21/04:30am 18.3 13.9 2.6 35 7.2 S 15 24 8 13 1015.4 1015.3 0.0
21/04:00am 18.0 13.7 3.5 38 6.8 S 15 22 8 12 1015.4 1015.3 0.0
21/03:30am 17.8 14.1 4.4 41 6.4 S 13 22 7 12 1015.5 1015.4 0.0
21/03:00am 17.3 15.0 7.4 52 5.0 SSW 9 15 5 8 1015.6 1015.5 0.0
21/02:30am 17.1 15.9 10.2 64 3.7 SSW 7 11 4 6 1015.8 1015.7 0.0
21/02:00am 15.6 15.4 12.9 84 1.5 S 6 9 3 5 1015.7 1015.6 0.0
21/01:30am 16.4 16.8 14.8 90 0.9 SW 6 7 3 4 1015.9 1015.8 0.0
21/01:00am 16.2 16.5 14.6 90 0.9 SW 6 7 3 4 1016.1 1016.0 0.0
21/12:30am 13.4 11.8 8.0 70 2.7 SW 6 7 3 4 1016.2 1016.1 0.0
21/12:00am 14.3 12.6 8.3 67 3.0 WSW 7 9 4 5 1016.2 1016.1 0.0
 
Date/Time
EST
Temp
°C
App
Temp
°C
Dew
Point
Rel
Hum
%
Delta-T
°C
Wind Press
QNH
hPa
Press
MSL
hPa
Rain
since 9 am
mm
Dir
 
Spd
km/h
Gust
km/h
Spd
kts
Gust
kts
20/11:30pm 14.8 13.0 8.1 64 3.4 W 7 9 4 5 1016.3 1016.2 0.0
20/11:00pm 14.4 13.6 6.3 58 3.9 CALM 0 0 0 0 1016.3 1016.2 0.0
20/10:30pm 15.1 14.0 5.0 51 4.7 CALM 0 0 0 0 1016.1 1016.0 0.0
20/10:00pm 15.8 14.4 3.3 43 5.7 CALM 0 0 0 0 1016.1 1016.0 0.0
20/09:30pm 16.6 14.0 3.0 40 6.2 E 6 7 3 4 1016.0 1015.9 0.0
20/09:00pm 17.3 14.5 2.9 38 6.6 ESE 7 9 4 5 1015.8 1015.7 0.0
20/08:30pm 18.2 14.9 2.5 35 7.2 E 9 11 5 6 1015.6 1015.5 0.0
20/08:00pm 18.4 15.2 3.1 36 7.1 ESE 9 11 5 6 1015.4 1015.3 0.0
20/07:30pm 19.6 16.0 0.6 28 8.5 E 9 9 5 5 1015.0 1014.9 0.0
20/07:00pm 21.0 17.3 0.2 25 9.3 E 9 11 5 6 1014.7 1014.6 0.0
20/06:30pm 23.0 18.4 -1.1 20 10.7 ESE 13 17 7 9 1014.4 1014.3 0.0
20/06:00pm 24.1 19.4 -1.7 18 11.4 ESE 13 19 7 10 1014.3 1014.2 0.0
20/05:30pm 25.0 20.0 -0.9 18 11.7 ESE 15 19 8 10 1014.0 1013.9 0.0
20/05:00pm 25.3 20.4 -0.7 18 11.8 SE 15 20 8 11 1013.9 1013.8 0.0
20/04:30pm 25.7 20.5 0.4 19 11.8 SE 17 24 9 13 1014.1 1014.0 0.0
20/04:00pm 25.7 20.3 -1.2 17 12.2 SE 17 24 9 13 1014.1 1014.0 0.0
20/03:30pm 25.9 20.1 -1.8 16 12.4 SE 19 28 10 15 1014.2 1014.1 0.0
20/03:00pm 26.1 21.4 0.7 19 11.9 SE 15 24 8 13 1014.6 1014.5 0.0
20/02:30pm 24.7 19.6 0.9 21 11.1 SE 17 28 9 15 1015.1 1015.0 0.0
20/02:00pm 25.2 20.7 2.0 22 11.1 SSE 15 28 8 15 1015.7 1015.6 0.0
20/01:30pm 24.1 18.9 2.3 24 10.4 SE 19 26 10 14 1016.1 1016.0 0.0
20/01:00pm 23.9 18.8 3.2 26 10.0 SSE 19 30 10 16 1016.6 1016.5 0.0
20/12:30pm 23.0 17.7 3.0 27 9.6 SSE 20 33 11 18 1016.9 1016.8 0.0
20/12:00pm 21.9 16.2 3.1 29 8.9 SSE 22 41 12 22 1017.3 1017.2 0.0
20/11:30am 21.3 16.0 4.8 34 8.1 SSE 22 35 12 19 1017.9 1017.8 0.0
20/11:00am 20.8 15.4 4.4 34 7.9 SSE 22 37 12 20 1018.0 1017.9 0.0
20/10:30am 20.5 15.8 5.3 37 7.5 SSE 19 32 10 17 1018.1 1018.0 0.0
20/10:00am 20.2 15.5 6.2 40 7.0 SSE 20 33 11 18 1018.0 1017.9 0.0
20/09:30am 19.9 15.0 5.2 38 7.2 SSE 20 39 11 21 1017.8 1017.7 0.0
20/09:00am 20.1 16.1 6.8 42 6.7 SE 17 26 9 14 1017.6 1017.5 0.0
20/08:30am 19.5 15.3 7.6 46 6.1 SSE 19 33 10 18 1017.8 1017.7 0.0
20/08:00am 20.4 16.5 7.1 42 6.8 SSE 17 24 9 13 1017.4 1017.3 0.0
20/07:30am 19.7 15.7 6.8 43 6.5 SE 17 26 9 14 1017.0 1016.9 0.0
20/07:00am 19.3 15.5 7.4 46 6.0 SE 17 24 9 13 1016.9 1016.8 0.0
20/06:30am 19.6 15.2 6.7 43 6.5 SE 19 26 10 14 1016.6 1016.5 0.0
20/06:00am 19.5 15.6 7.3 45 6.2 SE 17 28 9 15 1016.2 1016.1 0.0
20/05:30am 19.3 15.6 8.0 48 5.8 SE 17 24 9 13 1015.8 1015.7 0.0
20/05:00am 19.4 16.3 9.0 51 5.5 SE 15 24 8 13 1015.5 1015.4 0.0
20/04:30am 19.1 16.5 9.3 53 5.2 SSE 13 20 7 11 1015.5 1015.4 0.0
20/04:00am 18.8 16.8 10.1 57 4.6 SSE 11 17 6 9 1015.3 1015.2 0.0
20/03:30am 18.1 16.1 10.2 60 4.2 SSE 11 17 6 9 1015.2 1015.1 0.0
20/03:00am 17.7 15.7 10.1 61 4.0 SSE 11 17 6 9 1015.3 1015.2 0.0
20/02:30am 17.2 15.9 11.2 68 3.2 S 9 15 5 8 1015.6 1015.5 0.0
20/02:00am 13.5 11.6 7.5 67 2.9 SSE 7 9 4 5 1015.8 1015.7 0.0
20/01:30am 12.7 10.2 6.7 67 2.9 SE 9 13 5 7 1016.1 1016.0 0.0
20/01:00am 12.9 11.1 7.1 68 2.8 ESE 6 7 3 4 1016.4 1016.3 0.0
20/12:30am 13.6 11.8 7.2 65 3.1 ESE 6 7 3 4 1016.4 1016.3 0.0
20/12:00am 14.6 12.5 8.1 65 3.2 SSE 9 15 5 8 1016.4 1016.3 0.0
 
Date/Time
EST
Temp
°C
App
Temp
°C
Dew
Point
Rel
Hum
%
Delta-T
°C
Wind Press
QNH
hPa
Press
MSL
hPa
Rain
since 9 am
mm
Dir
 
Spd
km/h
Gust
km/h
Spd
kts
Gust
kts
19/11:30pm 15.0 12.4 6.3 56 4.2 ESE 9 11 5 6 1016.4 1016.3 0.0
19/11:00pm 16.7 15.1 7.9 56 4.4 S 6 9 3 5 1016.3 1016.2 0.0
19/10:30pm 15.4 13.4 6.1 54 4.5 S 6 7 3 4 1016.1 1016.0 0.0
19/10:00pm 15.6 13.3 4.6 48 5.1 S 6 7 3 4 1016.2 1016.1 0.0
19/09:30pm 15.8 14.3 4.8 48 5.2 SW 2 6 1 3 1016.3 1016.2 0.0
19/09:00pm 16.0 13.6 4.1 45 5.5 E 6 7 3 4 1016.1 1016.0 0.0
19/08:30pm 16.9 14.4 3.6 41 6.2 E 6 7 3 4 1015.9 1015.8 0.0
19/08:00pm 17.5 14.7 3.4 39 6.5 E 7 7 4 4 1015.6 1015.5 0.0
19/07:30pm 18.2 15.4 2.9 36 7.1 E 7 9 4 5 1015.2 1015.1 0.0
19/07:00pm 20.0 17.3 2.4 31 8.1 E 6 6 3 3 1014.9 1014.8 0.0
19/06:30pm 21.6 18.4 2.8 29 8.9 ESE 9 11 5 6 1014.5 1014.4 0.0
19/06:00pm 23.3 19.4 3.3 27 9.7 ESE 13 20 7 11 1014.4 1014.3 0.0
19/05:30pm 24.0 19.6 2.8 25 10.2 SE 15 24 8 13 1014.6 1014.5 0.0
19/05:00pm 24.6 19.8 2.7 24 10.6 SE 17 24 9 13 1014.6 1014.5 0.0
19/04:30pm 24.7 19.5 2.2 23 10.8 ESE 19 24 10 13 1014.8 1014.7 0.0
19/04:00pm 24.7 19.6 2.8 24 10.6 SE 19 30 10 16 1014.9 1014.8 0.0
19/03:30pm 23.9 17.8 2.7 25 10.2 SE 24 32 13 17 1015.1 1015.0 0.0
19/03:00pm 24.3 19.0 3.0 25 10.3 ESE 20 28 11 15 1015.4 1015.3 0.0
19/02:30pm 24.2 19.5 2.9 25 10.3 SE 17 28 9 15 1015.9 1015.8 0.0
19/02:00pm 24.0 19.0 1.6 23 10.5 SE 17 28 9 15 1016.5 1016.4 0.0
19/01:30pm 23.1 18.4 6.0 33 8.7 SE 20 30 11 16 1017.0 1016.9 0.0
19/01:00pm 23.0 18.9 7.9 38 7.9 SSE 19 30 10 16 1017.2 1017.1 0.0
19/12:30pm 22.7 19.1 9.8 44 7.0 SSE 19 28 10 15 1017.7 1017.6 0.0
19/12:00pm 21.9 18.4 10.1 47 6.4 SSE 19 26 10 14 1018.0 1017.9 0.0
19/11:30am 22.2 18.6 10.0 46 6.6 SSE 19 33 10 18 1018.4 1018.3 0.0
19/11:00am 21.8 18.2 10.0 47 6.4 SSE 19 28 10 15 1018.8 1018.7 0.0
19/10:30am 22.1 19.2 10.9 49 6.2 SSE 17 28 9 15 1019.1 1019.0 0.0
19/10:00am 21.4 18.2 9.9 48 6.2 SSE 17 26 9 14 1019.2 1019.1 0.0
19/09:30am 21.5 18.2 9.7 47 6.4 SE 17 28 9 15 1019.3 1019.2 0.0
19/09:00am 21.0 16.4 8.3 44 6.6 SE 22 33 12 18 1019.1 1019.0 0.0
19/08:30am 20.8 17.1 8.1 44 6.6 SE 17 32 9 17 1018.9 1018.8 0.0
19/08:00am 20.2 17.4 10.0 52 5.5 SE 15 20 8 11 1018.6 1018.5 0.0
19/07:30am 19.1 16.7 10.1 56 4.8 SSE 13 20 7 11 1018.3 1018.2 0.0
19/07:00am 18.2 16.0 9.5 57 4.6 SSE 11 19 6 10 1018.2 1018.1 0.0
19/06:30am 18.7 16.1 9.2 54 5.0 SSE 13 20 7 11 1018.0 1017.9 0.0
19/06:00am 18.7 15.9 8.7 52 5.2 SSE 13 22 7 12 1017.6 1017.5 0.0
19/05:30am 19.1 16.4 9.0 52 5.3 SSE 13 19 7 10 1017.4 1017.3 0.0
19/05:00am 18.8 16.2 9.3 54 5.0 SSE 13 20 7 11 1017.1 1017.0 0.0
19/04:30am 19.1 16.0 7.2 46 6.0 SSE 13 24 7 13 1017.1 1017.0 0.0
19/04:00am 18.7 16.2 9.8 56 4.7 S 13 20 7 11 1017.1 1017.0 0.0
19/03:30am 17.5 15.4 9.9 61 4.0 SSE 11 17 6 9 1017.2 1017.1 0.0
19/03:00am 17.0 15.5 10.4 65 3.5 SSE 9 15 5 8 1017.1 1017.0 0.0
19/02:30am 16.7 15.3 9.6 63 3.7 SSE 7 11 4 6 1017.3 1017.2 0.0
19/02:00am 16.9 15.1 9.6 62 3.8 SSE 9 13 5 7 1017.4 1017.3 0.0
19/01:30am 17.2 15.2 8.6 57 4.4 S 9 13 5 7 1017.3 1017.2 0.0
19/01:00am 17.3 15.3 8.7 57 4.4 S 9 13 5 7 1017.4 1017.3 0.0
19/12:30am 16.2 15.5 11.4 73 2.6 S 6 9 3 5 1017.6 1017.5 0.0
19/12:00am 14.3 12.7 6.4 59 3.8 SSE 4 6 2 3 1017.7 1017.6 0.0
 
Date/Time
EST
Temp
°C
App
Temp
°C
Dew
Point
Rel
Hum
%
Delta-T
°C
Wind Press
QNH
hPa
Press
MSL
hPa
Rain
since 9 am
mm
Dir
 
Spd
km/h
Gust
km/h
Spd
kts
Gust
kts
18/11:30pm 15.0 13.9 6.8 58 4.0 SW 2 6 1 3 1017.8 1017.7 0.0
18/11:00pm 15.4 13.1 5.0 50 4.9 S 6 9 3 5 1017.8 1017.7 0.0
18/10:30pm 14.3 12.3 6.2 58 3.9 SE 6 7 3 4 1018.0 1017.9 0.0
18/10:00pm 13.6 11.3 5.7 59 3.7 SSE 7 9 4 5 1017.8 1017.7 0.0

Other Formats:

Comma delimited format used in spreadsheet applications
http://www.bom.gov.au/fwo/IDQ60801/IDQ60801.94254.axf

JavaScript Object Notation format (JSON) in row-major order
http://www.bom.gov.au/fwo/IDQ60801/IDQ60801.94254.json